Time;durP1;ratioP1;P1;durP2;ratioP2;P2;SDS_P1;SDS_P2;PMS_P1;PMS_P2;Temp;Humidity;BMP_temperature;BMP_pressure;BME280_temperature;BME280_humidity;BME280_pressure;Samples;Min_cycle;Max_cycle;Signal;HPM_P1;HPM_P2
2023/02/15 00:00:39;;;;;;;29.10;12.20;;;;;;;0.44;82.95;100608.55;109907;1282;22198;-78
2023/02/15 00:03:29;;;;;;;29.80;12.60;;;;;;;0.40;83.26;100610.27;109929;1282;22177;-78
2023/02/15 00:05:58;;;;;;;34.10;13.40;;;;;;;0.37;83.12;100610.16;109836;1277;22186;-77
2023/02/15 00:08:27;;;;;;;30.40;12.70;;;;;;;0.34;83.60;100612.57;109909;1282;23341;-77
2023/02/15 00:11:39;;;;;;;28.10;12.20;;;;;;;0.30;83.89;100615.14;109866;1278;22168;-77
2023/02/15 00:14:04;;;;;;;38.10;12.90;;;;;;;0.25;83.87;100616.66;109794;1282;22151;-77
2023/02/15 00:16:35;;;;;;;31.30;13.10;;;;;;;0.20;83.38;100609.96;109908;1279;22302;-76
2023/02/15 00:19:08;;;;;;;26.80;12.40;;;;;;;0.14;83.29;100616.35;109829;1274;22200;-77
2023/02/15 00:21:42;;;;;;;32.20;14.10;;;;;;;0.05;83.85;100616.00;109838;1276;22407;-77
2023/02/15 00:24:15;;;;;;;30.60;12.70;;;;;;;-0.01;84.04;100618.15;109898;1271;22245;-77
2023/02/15 00:26:48;;;;;;;31.50;13.60;;;;;;;-0.06;83.20;100619.82;109807;1281;22284;-75
2023/02/15 00:29:19;;;;;;;36.50;13.90;;;;;;;-0.12;82.91;100618.35;109949;1282;22225;-77
2023/02/15 00:31:48;;;;;;;29.80;12.30;;;;;;;-0.17;82.43;100615.75;109883;1279;22225;-77
2023/02/15 00:34:22;;;;;;;31.50;13.10;;;;;;;-0.24;81.93;100620.08;109908;1277;22188;-77
2023/02/15 00:36:51;;;;;;;31.00;12.30;;;;;;;-0.30;82.90;100616.61;107406;1282;25377;-77
2023/02/15 00:39:20;;;;;;;34.90;14.10;;;;;;;-0.35;83.82;100611.73;106980;1268;22553;-76
2023/02/15 00:41:56;;;;;;;28.60;12.00;;;;;;;-0.39;85.45;100613.98;106995;1282;22616;-77
2023/02/15 00:44:25;;;;;;;37.70;13.60;;;;;;;-0.41;85.15;100608.43;107063;1278;23376;-75
2023/02/15 00:46:57;;;;;;;42.60;13.90;;;;;;;-0.43;84.72;100604.77;109886;1282;22312;-77
2023/02/15 00:49:27;;;;;;;38.70;15.40;;;;;;;-0.45;84.68;100605.54;109873;1282;22860;-77
2023/02/15 00:51:57;;;;;;;38.80;14.10;;;;;;;-0.46;85.52;100600.54;107131;1282;22643;-76
2023/02/15 00:54:25;;;;;;;36.60;14.30;;;;;;;-0.48;85.68;100593.14;106769;1282;23357;-76
2023/02/15 00:56:59;;;;;;;38.00;15.10;;;;;;;-0.50;85.50;100595.77;106796;1282;22625;-77
2023/02/15 00:59:29;;;;;;;34.90;14.30;;;;;;;-0.52;86.17;100594.83;106988;1279;22594;-77
2023/02/15 01:01:58;;;;;;;35.30;14.10;;;;;;;-0.54;85.73;100592.36;106966;1282;22569;-76
2023/02/15 01:04:35;;;;;;;40.20;15.10;;;;;;;-0.56;85.71;100593.16;107033;1282;22526;-75
2023/02/15 01:07:09;;;;;;;37.40;15.50;;;;;;;-0.59;85.48;100590.63;106893;1282;22527;-77
2023/02/15 01:09:43;;;;;;;;;;;;;;;-0.64;84.87;100587.20;106771;1272;24341;-76
2023/02/15 01:12:15;;;;;;;38.30;13.80;;;;;;;-0.68;86.43;100588.18;106699;1282;22532;-78
2023/02/15 01:14:50;;;;;;;36.80;15.70;;;;;;;-0.69;85.28;100585.73;106783;1272;22587;-77
2023/02/15 01:17:20;;;;;;;34.50;14.50;;;;;;;-0.73;86.78;100587.45;106783;1282;25261;-76
2023/02/15 01:19:51;;;;;;;34.40;13.80;;;;;;;-0.74;86.47;100579.90;109853;1282;22191;-78
2023/02/15 01:22:22;;;;;;;40.80;16.80;;;;;;;-0.75;87.07;100576.46;109931;1282;22360;-77
2023/02/15 01:24:51;;;;;;;41.10;14.90;;;;;;;-0.76;87.45;100574.73;109857;1282;22174;-77
2023/02/15 01:27:19;;;;;;;31.20;14.00;;;;;;;-0.76;86.89;100572.35;109873;1280;22202;-77
2023/02/15 01:29:56;;;;;;;30.60;12.30;;;;;;;-0.76;87.39;100572.52;109864;1276;22195;-77
2023/02/15 01:32:27;;;;;;;33.40;13.80;;;;;;;-0.77;87.82;100571.13;109907;1282;22222;-77
2023/02/15 01:34:56;;;;;;;36.80;14.80;;;;;;;-0.76;88.00;100571.98;109906;1282;22187;-78
2023/02/15 01:37:27;;;;;;;27.30;12.50;;;;;;;-0.75;87.53;100569.29;109934;1282;22197;-77
2023/02/15 01:40:05;;;;;;;33.10;13.10;;;;;;;-0.76;87.77;100567.40;109884;1282;22172;-77
2023/02/15 01:42:50;;;;;;;36.80;13.20;;;;;;;-0.75;87.88;100572.38;109929;1273;22447;-77
2023/02/15 01:45:36;;;;;;;32.50;12.90;;;;;;;-0.74;87.63;100563.07;109918;1282;23495;-77
2023/02/15 01:48:27;;;;;;;36.20;13.50;;;;;;;-0.72;87.89;100562.80;109855;1282;22295;-77
2023/02/15 01:51:00;;;;;;;31.40;13.90;;;;;;;-0.71;87.98;100561.66;109889;1282;22191;-77
2023/02/15 01:53:38;;;;;;;34.00;14.30;;;;;;;-0.71;88.24;100562.67;109896;1282;22419;-78
2023/02/15 01:56:17;;;;;;;36.40;15.20;;;;;;;-0.70;86.75;100566.11;109857;1276;22348;-78
2023/02/15 01:58:54;;;;;;;38.80;15.70;;;;;;;-0.73;86.36;100563.46;109857;1283;22946;-77
2023/02/15 02:01:27;;;;;;;36.90;16.20;;;;;;;-0.78;86.35;100568.51;109878;1282;22387;-78
2023/02/15 02:04:28;;;;;;;35.90;15.70;;;;;;;-0.84;86.54;100566.87;109929;1282;22192;-77
2023/02/15 02:07:06;;;;;;;39.40;15.50;;;;;;;-0.89;87.36;100565.64;109884;1282;22188;-76
2023/02/15 02:09:47;;;;;;;41.00;15.80;;;;;;;-0.92;87.34;100561.43;109899;1282;22219;-77
2023/02/15 02:12:25;;;;;;;34.50;14.40;;;;;;;-0.96;88.02;100557.48;109879;1272;22212;-77
2023/02/15 02:14:59;;;;;;;34.00;14.50;;;;;;;-0.98;87.69;100559.27;109915;1282;22243;-78
2023/02/15 02:18:20;;;;;;;35.90;15.10;;;;;;;-1.00;87.65;100561.08;109836;1281;22202;-76
2023/02/15 02:21:56;;;;;;;39.60;15.70;;;;;;;-1.03;86.20;100561.61;109889;1283;22305;-77
2023/02/15 02:24:56;;;;;;;42.10;14.50;;;;;;;-1.08;86.01;100565.63;107713;1277;2872193;-76
2023/02/15 02:28:11;;;;;;;42.00;15.60;;;;;;;-1.13;86.81;100561.02;109881;1282;22223;-77
2023/02/15 02:30:59;;;;;;;38.10;14.70;;;;;;;-1.15;87.49;100566.84;109897;1282;22243;-76
2023/02/15 02:34:23;;;;;;;46.40;16.40;;;;;;;-1.18;85.44;100570.81;109921;1282;22296;-77
2023/02/15 02:37:02;;;;;;;39.10;15.90;;;;;;;-1.24;85.27;100568.48;109913;1282;23612;-77
2023/02/15 02:39:43;;;;;;;36.70;14.90;;;;;;;-1.28;85.96;100565.94;109886;1282;23126;-77
2023/02/15 02:42:55;;;;;;;30.60;11.40;;;;;;;-1.29;86.12;100569.61;109942;1282;22259;-77
2023/02/15 02:46:24;;;;;;;44.80;16.10;;;;;;;-1.33;85.65;100576.08;109909;1271;22324;-78
2023/02/15 02:49:01;;;;;;;34.10;15.20;;;;;;;-1.36;86.81;100570.31;106731;1282;25352;-77
2023/02/15 02:51:46;;;;;;;37.00;15.40;;;;;;;-1.40;86.00;100571.14;106796;1282;22530;-77
2023/02/15 02:54:19;;;;;;;38.50;15.80;;;;;;;-1.44;85.18;100574.70;106815;1282;22527;-76
2023/02/15 02:56:53;;;;;;;31.70;13.40;;;;;;;-1.49;84.85;100575.65;106771;1271;22556;-77
2023/02/15 02:59:38;;;;;;;40.30;15.90;;;;;;;-1.56;86.44;100571.61;106729;1282;23912;-76
2023/02/15 03:02:25;;;;;;;33.40;13.60;;;;;;;-1.60;85.97;100572.10;109931;1279;22804;-78
2023/02/15 03:05:03;;;;;;;39.30;14.60;;;;;;;-1.63;85.93;100570.27;109905;1278;22189;-76
2023/02/15 03:07:35;;;;;;;37.30;14.60;;;;;;;-1.63;86.72;100572.81;109890;1282;23216;-77
2023/02/15 03:10:06;;;;;;;38.20;15.30;;;;;;;-1.62;86.57;100571.48;109873;1277;22226;-77
2023/02/15 03:12:40;;;;;;;36.20;15.00;;;;;;;-1.61;86.66;100575.45;109013;1282;22648;-77
2023/02/15 03:15:25;;;;;;;34.60;13.90;;;;;;;-1.59;86.55;100575.36;109849;1280;22193;-76
2023/02/15 03:18:02;;;;;;;37.20;15.10;;;;;;;-1.59;86.46;100572.98;108671;1282;24234;-77
2023/02/15 03:20:36;;;;;;;36.80;14.60;;;;;;;-1.58;85.97;100572.17;106866;1277;24247;-77
2023/02/15 03:23:13;;;;;;;33.60;13.20;;;;;;;-1.59;86.12;100577.91;106878;1275;22566;-77
2023/02/15 03:25:46;;;;;;;40.20;15.00;;;;;;;-1.58;86.46;100582.02;106859;1277;22548;-77
2023/02/15 03:28:24;;;;;;;38.40;14.10;;;;;;;-1.60;86.60;100582.30;106895;1282;22552;-76
2023/02/15 03:30:55;;;;;;;39.00;14.80;;;;;;;-1.58;86.52;100580.33;109843;1282;22207;-78
2023/02/15 03:33:27;;;;;;;46.20;18.30;;;;;;;-1.55;86.95;100580.96;109851;1282;22260;-78
2023/02/15 03:36:18;;;;;;;58.50;20.30;;;;;;;-1.51;86.82;100579.12;109928;1282;23007;-77
2023/02/15 03:39:00;;;;;;;43.60;15.70;;;;;;;-1.48;86.92;100577.73;109911;1282;22202;-77
2023/02/15 03:41:37;;;;;;;41.40;16.30;;;;;;;-1.47;86.74;100577.46;109945;1282;23152;-77
2023/02/15 03:44:15;;;;;;;43.50;17.80;;;;;;;-1.48;86.46;100581.86;107188;1282;22576;-77
2023/02/15 03:46:56;;;;;;;44.10;17.70;;;;;;;-1.49;86.77;100581.98;106825;1281;22994;-77
2023/02/15 03:49:46;;;;;;;48.30;18.40;;;;;;;-1.49;86.57;100584.70;106874;1282;25339;-76
2023/02/15 03:52:19;;;;;;;48.60;18.90;;;;;;;-1.52;86.36;100588.47;106711;1277;22614;-77
2023/02/15 03:54:52;;;;;;;51.20;20.50;;;;;;;-1.55;85.91;100587.95;106811;1282;21836;-77
2023/02/15 04:03:35;;;;;;;66.50;23.70;;;;;;;-1.78;85.63;100594.66;106901;1276;22803;-77
2023/02/15 04:06:04;;;;;;;73.80;25.60;;;;;;;-1.84;86.44;100591.52;106886;1282;25287;-77
2023/02/15 04:11:30;;;;;;;65.40;24.70;;;;;;;-1.95;86.93;100593.36;106902;1282;22528;-77
2023/02/15 04:16:02;;;;;;;60.90;25.60;;;;;;;-1.99;87.21;100593.13;107189;1282;25422;-76
2023/02/15 04:16:53;;;;;;;68.60;24.30;;;;;;;-2.05;86.95;100593.91;107249;1282;22549;-77
2023/02/15 04:25:16;;;;;;;60.80;23.30;;;;;;;-2.24;87.23;100599.73;106913;1282;25198;-76
2023/02/15 04:27:50;;;;;;;52.00;21.10;;;;;;;-2.30;87.00;100606.19;106868;1282;22538;-77
2023/02/15 04:30:28;;;;;;;58.70;23.70;;;;;;;-2.36;87.34;100603.35;106833;1282;25489;-77
2023/02/15 04:32:59;;;;;;;60.10;21.70;;;;;;;-2.41;87.46;100608.71;109938;1282;22203;-77
2023/02/15 04:35:33;;;;;;;55.80;22.10;;;;;;;-2.46;87.39;100612.73;109937;1282;22166;-76
2023/02/15 04:38:01;;;;;;;67.10;23.50;;;;;;;-2.48;87.73;100618.03;109892;1282;22175;-77
2023/02/15 04:40:32;;;;;;;63.80;24.00;;;;;;;-2.50;87.53;100624.52;108368;1282;22982;-76
2023/02/15 04:43:04;;;;;;;61.90;23.90;;;;;;;-2.54;87.43;100625.33;106903;1282;25429;-77
2023/02/15 04:45:35;;;;;;;69.70;25.80;;;;;;;-2.56;87.83;100628.14;106877;1282;22604;-77
2023/02/15 04:48:06;;;;;;;44.20;17.40;;;;;;;-2.59;87.26;100630.20;106823;1282;22654;-79
2023/02/15 04:50:37;;;;;;;78.50;27.00;;;;;;;-2.63;87.57;100633.76;106868;1282;24265;-76
2023/02/15 04:53:08;;;;;;;69.70;26.50;;;;;;;-2.65;88.26;100632.29;106787;1282;24403;-76
2023/02/15 04:55:42;;;;;;;70.70;28.90;;;;;;;-2.67;87.83;100632.67;106901;1282;22949;-77
2023/02/15 04:58:17;;;;;;;59.80;23.70;;;;;;;-2.69;88.00;100629.64;106859;1276;22540;-77
2023/02/15 05:00:46;;;;;;;61.30;23.40;;;;;;;-2.73;88.05;100631.15;106849;1282;22662;-77
2023/02/15 05:03:23;;;;;;;62.80;22.90;;;;;;;-2.75;87.03;100631.56;106887;1282;22599;-77
2023/02/15 05:05:52;;;;;;;54.90;20.90;;;;;;;-2.79;87.22;100636.95;106897;1282;22522;-77
2023/02/15 05:08:23;;;;;;;58.50;20.20;;;;;;;-2.82;85.41;100637.64;106844;1271;22522;-76
2023/02/15 05:10:55;;;;;;;56.50;21.30;;;;;;;-2.85;85.58;100639.04;106849;1282;22574;-78
2023/02/15 05:13:26;;;;;;;57.90;22.20;;;;;;;-2.85;85.63;100647.52;106882;1282;22548;-77
2023/02/15 05:15:58;;;;;;;51.80;21.00;;;;;;;-2.84;86.31;100647.74;106853;1282;24212;-76
2023/02/15 05:18:32;;;;;;;62.70;23.10;;;;;;;-2.82;86.60;100642.71;106863;1282;22623;-76
2023/02/15 05:21:04;;;;;;;52.80;20.70;;;;;;;-2.79;87.47;100647.30;106851;1282;25383;-76
2023/02/15 05:23:38;;;;;;;58.00;23.80;;;;;;;-2.77;87.16;100651.50;106810;1279;22735;-77
2023/02/15 05:29:07;;;;;;;61.40;22.10;;;;;;;-2.68;87.12;100658.55;109895;1282;22287;-77
2023/02/15 05:31:41;;;;;;;58.10;22.40;;;;;;;-2.65;86.53;100662.96;107410;1282;22589;-76
2023/02/15 05:34:13;;;;;;;50.40;21.10;;;;;;;-2.63;87.33;100661.26;106883;1282;23454;-76
2023/02/15 05:36:49;;;;;;;54.50;22.10;;;;;;;-2.55;87.40;100674.86;106839;1282;22655;-76
2023/02/15 05:39:24;;;;;;;58.80;23.50;;;;;;;-2.53;86.71;100672.42;106861;1282;22564;-76
2023/02/15 05:42:03;;;;;;;65.60;25.60;;;;;;;-2.48;87.82;100672.03;106894;1282;22602;-76
2023/02/15 05:44:32;;;;;;;74.40;32.40;;;;;;;-2.43;87.78;100674.88;106995;1282;22564;-77
2023/02/15 05:47:06;;;;;;;92.00;36.50;;;;;;;-2.37;88.02;100674.96;106981;1282;23432;-77
2023/02/15 05:49:47;;;;;;;69.60;26.60;;;;;;;-2.31;88.22;100680.69;107041;1282;22647;-77
2023/02/15 05:52:19;;;;;;;60.40;25.60;;;;;;;-2.27;87.78;100684.70;107106;1282;23637;-76
2023/02/15 05:54:53;;;;;;;73.40;29.30;;;;;;;-2.24;87.86;100683.29;107186;1272;22565;-76
2023/02/15 05:57:27;;;;;;;62.10;25.40;;;;;;;-2.20;88.25;100689.46;106936;1282;23774;-77
2023/02/15 06:00:06;;;;;;;59.20;25.70;;;;;;;-2.15;87.92;100689.52;107221;1275;22773;-75
2023/02/15 06:03:00;;;;;;;87.00;34.70;;;;;;;-2.18;86.98;100692.45;106902;1275;24831;-76
2023/02/15 06:05:44;;;;;;;71.60;29.80;;;;;;;-2.19;87.36;100694.10;106844;1281;24699;-77
2023/02/15 06:08:23;;;;;;;81.40;32.40;;;;;;;-2.18;87.37;100699.88;106767;1276;25409;-77
2023/02/15 06:11:05;;;;;;;80.10;29.00;;;;;;;-2.18;88.20;100696.14;106853;1282;22535;-77
2023/02/15 06:13:42;;;;;;;84.10;32.50;;;;;;;-2.19;87.95;100700.02;107005;1279;25286;-76
2023/02/15 06:16:18;;;;;;;71.90;30.00;;;;;;;-2.20;87.75;100702.35;106887;1276;24213;-76
2023/02/15 06:18:58;;;;;;;67.70;25.50;;;;;;;-2.21;87.37;100704.02;106914;1276;22529;-76
2023/02/15 06:21:53;;;;;;;82.00;27.60;;;;;;;-2.19;88.18;100705.80;106894;1282;22533;-76
2023/02/15 06:24:33;;;;;;;78.50;26.30;;;;;;;-2.17;87.99;100712.02;106862;1282;24930;-78
2023/02/15 06:27:10;;;;;;;94.70;36.80;;;;;;;-2.14;87.54;100716.21;106823;1268;23291;-78
2023/02/15 06:29:43;;;;;;;80.40;32.30;;;;;;;-2.15;86.91;100717.89;106724;1276;22555;-76
2023/02/15 06:32:25;;;;;;;80.20;28.10;;;;;;;-2.13;87.88;100718.35;106972;1270;24216;-77
2023/02/15 06:35:03;;;;;;;68.40;28.20;;;;;;;-2.10;88.43;100719.84;107003;1275;24267;-76
2023/02/15 06:37:35;;;;;;;79.50;32.20;;;;;;;-2.08;86.97;100718.77;106893;1282;22545;-77
2023/02/15 06:40:10;;;;;;;88.80;30.80;;;;;;;-2.07;87.11;100716.61;106919;1275;22805;-77
2023/02/15 06:42:38;;;;;;;77.80;31.00;;;;;;;-2.03;87.89;100718.52;109859;1282;22221;-76
2023/02/15 06:45:10;;;;;;;67.70;26.20;;;;;;;-1.98;87.92;100720.13;109824;1280;22986;-77
2023/02/15 06:47:40;;;;;;;61.70;24.60;;;;;;;-1.93;87.61;100717.86;109903;1280;22229;-76
2023/02/15 06:50:11;;;;;;;61.70;24.90;;;;;;;-1.87;87.85;100717.80;109803;1281;22773;-77
2023/02/15 06:52:40;;;;;;;56.00;23.10;;;;;;;-1.81;88.02;100718.79;109827;1281;22347;-76
2023/02/15 06:55:08;;;;;;;61.90;24.20;;;;;;;-1.75;87.40;100720.11;109808;1275;22254;-75
2023/02/15 06:57:39;;;;;;;63.10;25.40;;;;;;;-1.70;87.70;100719.67;109876;1275;23155;-78
2023/02/15 07:00:11;;;;;;;56.50;22.90;;;;;;;-1.64;87.67;100713.52;109837;1267;22903;-77
2023/02/15 07:02:39;;;;;;;54.00;22.00;;;;;;;-1.57;87.34;100716.05;109771;1274;22336;-78
2023/02/15 07:05:08;;;;;;;64.20;24.30;;;;;;;-1.51;87.07;100717.20;109850;1274;22197;-78
2023/02/15 07:07:39;;;;;;;49.20;21.90;;;;;;;-1.46;87.09;100714.23;109768;1277;22198;-78
2023/02/15 07:10:08;;;;;;;60.30;23.90;;;;;;;-1.39;86.67;100719.17;109628;1275;22548;-77
2023/02/15 07:12:44;;;;;;;65.30;24.10;;;;;;;-1.31;87.05;100717.83;106892;1275;24293;-77
2023/02/15 07:15:17;;;;;;;53.80;20.60;;;;;;;-1.22;87.25;100718.30;107010;1281;22633;-77
2023/02/15 07:17:46;;;;;;;;;;;;;;;-1.12;86.43;100719.29;107092;1277;23513;-76
2023/02/15 07:20:20;;;;;;;60.10;20.90;;;;;;;-1.04;87.40;100717.81;107221;1281;23993;-76
2023/02/15 07:22:49;;;;;;;51.00;19.80;;;;;;;-0.92;87.58;100719.52;109900;1275;22211;-77
2023/02/15 07:25:18;;;;;;;47.70;19.90;;;;;;;-0.80;87.34;100716.85;109876;1275;22177;-78
2023/02/15 07:27:46;;;;;;;58.80;21.90;;;;;;;-0.69;87.38;100718.05;109851;1275;22290;-76
2023/02/15 07:30:18;;;;;;;57.90;23.40;;;;;;;-0.56;87.35;100718.63;109826;1277;22179;-78
2023/02/15 07:35:35;;;;;;;78.70;27.60;;;;;;;-0.31;87.53;100719.60;109879;1274;22868;-77
2023/02/15 07:38:03;;;;;;;79.70;27.50;;;;;;;-0.21;87.45;100722.26;109852;1282;22189;-77
2023/02/15 07:40:35;;;;;;;74.30;24.80;;;;;;;-0.10;87.44;100723.79;109901;1282;22198;-77
2023/02/15 07:43:03;;;;;;;85.40;31.00;;;;;;;0.04;87.23;100722.17;109862;1275;22306;-78
2023/02/15 07:45:32;;;;;;;83.70;33.40;;;;;;;0.16;86.86;100719.48;109886;1282;23253;-80
2023/02/15 07:48:04;;;;;;;79.70;31.90;;;;;;;0.27;86.75;100720.10;109880;1274;22218;-76
2023/02/15 07:50:33;;;;;;;86.30;30.40;;;;;;;0.34;86.27;100722.96;109902;1282;22192;-75
2023/02/15 07:53:03;;;;;;;78.00;30.10;;;;;;;0.41;85.90;100722.39;109858;1275;22982;-77
2023/02/15 07:55:31;;;;;;;75.00;30.30;;;;;;;0.49;85.94;100717.27;109860;1277;22245;-76
2023/02/15 07:58:00;;;;;;;74.80;29.80;;;;;;;0.57;85.85;100719.96;109876;1282;22287;-76
2023/02/15 08:00:55;;;;;;;75.10;28.70;;;;;;;0.64;85.63;100715.48;109909;1270;22325;-77
2023/02/15 08:03:26;;;;;;;67.90;26.90;;;;;;;0.71;85.49;100716.77;108435;1282;22874;-77
2023/02/15 08:05:59;;;;;;;78.40;28.90;;;;;;;0.78;85.42;100716.90;106882;1260;22560;-78
2023/02/15 08:08:33;;;;;;;;;;;;;;;0.83;85.21;100719.85;106904;1282;22902;-77
2023/02/15 08:11:33;;;;;;;58.80;23.70;;;;;;;0.86;85.19;100715.86;106921;1273;22543;-77
2023/02/15 08:14:25;;;;;;;53.30;21.80;;;;;;;0.91;85.01;100711.79;106836;1282;23141;-77
2023/02/15 08:16:56;;;;;;;62.20;24.80;;;;;;;0.96;84.88;100705.48;106936;1277;24212;-77
2023/02/15 08:19:34;;;;;;;50.90;21.20;;;;;;;0.99;84.17;100705.96;106809;1283;22532;-77
2023/02/15 08:22:05;;;;;;;51.90;19.70;;;;;;;1.00;84.51;100701.73;106908;1282;22530;-79
2023/02/15 08:24:41;;;;;;;36.50;16.30;;;;;;;1.05;84.14;100701.38;106886;1282;24268;-77
2023/02/15 08:27:11;;;;;;;39.10;17.90;;;;;;;1.09;84.40;100701.89;106938;1282;22622;-77
2023/02/15 08:29:42;;;;;;;47.10;21.50;;;;;;;1.15;84.45;100697.35;106876;1279;25231;-77
2023/02/15 08:32:12;;;;;;;64.00;26.20;;;;;;;1.23;84.44;100694.73;106894;1282;22574;-78
2023/02/15 08:34:50;;;;;;;66.40;30.00;;;;;;;1.30;84.38;100696.23;106850;1283;22541;-77
2023/02/15 08:37:21;;;;;;;60.70;27.90;;;;;;;1.38;84.00;100695.33;106914;1275;22926;-76
2023/02/15 08:39:53;;;;;;;51.10;21.50;;;;;;;1.46;83.81;100695.46;106951;1281;22568;-77
2023/02/15 08:42:21;;;;;;;39.70;14.70;;;;;;;1.55;83.69;100689.10;106985;1282;24246;-76
2023/02/15 08:44:52;;;;;;;37.10;14.90;;;;;;;1.66;83.63;100687.96;107076;1275;22566;-77
2023/02/15 08:47:20;;;;;;;45.10;15.10;;;;;;;1.75;83.96;100683.86;107116;1276;22539;-76
2023/02/15 08:49:55;;;;;;;32.20;13.80;;;;;;;1.86;83.89;100678.60;107125;1275;24266;-76
2023/02/15 08:52:24;;;;;;;38.60;14.70;;;;;;;1.97;83.83;100673.20;107117;1274;22597;-76
2023/02/15 08:54:55;;;;;;;38.50;14.30;;;;;;;2.08;83.75;100674.75;107092;1277;25979;-76
2023/02/15 08:57:27;;;;;;;40.80;15.90;;;;;;;2.20;84.08;100671.40;107169;1275;22669;-77
2023/02/15 09:00:04;;;;;;;39.70;15.20;;;;;;;2.34;83.63;100672.90;107024;1267;25564;-77
2023/02/15 09:02:33;;;;;;;39.90;16.00;;;;;;;2.44;83.70;100671.35;109833;1279;22343;-77
2023/02/15 09:05:04;;;;;;;42.70;16.10;;;;;;;2.57;83.73;100669.89;109801;1282;22395;-77
2023/02/15 09:07:35;;;;;;;42.80;17.80;;;;;;;2.68;83.62;100671.77;109849;1282;22332;-77
2023/02/15 09:10:04;;;;;;;38.80;16.00;;;;;;;2.78;83.25;100667.31;109803;1273;22217;-77
2023/02/15 09:12:35;;;;;;;45.10;17.10;;;;;;;2.90;82.65;100669.73;109775;1275;22167;-78
2023/02/15 09:15:04;;;;;;;42.50;16.70;;;;;;;2.99;82.10;100669.48;109841;1268;22528;-77
2023/02/15 09:17:32;;;;;;;42.30;17.70;;;;;;;3.07;82.05;100666.81;109833;1282;22214;-78
2023/02/15 09:20:00;;;;;;;37.60;17.10;;;;;;;3.15;81.72;100670.16;109848;1282;22334;-77
2023/02/15 09:22:31;;;;;;;47.30;18.70;;;;;;;3.23;81.48;100663.02;109850;1270;22292;-76
2023/02/15 09:24:59;;;;;;;40.60;18.00;;;;;;;3.28;80.74;100666.27;109838;1279;22261;-77
2023/02/15 09:27:53;;;;;;;35.20;16.70;;;;;;;3.41;81.12;100666.11;109824;1281;23524;-77
2023/02/15 09:30:22;;;;;;;41.20;17.30;;;;;;;3.50;80.49;100661.92;108066;1275;23515;-77
2023/02/15 09:33:11;;;;;;;33.50;16.10;;;;;;;3.59;80.51;100655.66;107536;1271;24212;-78
2023/02/15 09:35:40;;;;;;;38.00;15.60;;;;;;;3.69;80.28;100649.42;107267;1280;22508;-78
2023/02/15 09:38:11;;;;;;;33.90;16.10;;;;;;;3.82;79.96;100646.70;107091;1278;22529;-76
2023/02/15 09:41:04;;;;;;;35.20;16.10;;;;;;;3.92;79.58;100641.83;107110;1275;22529;-77
2023/02/15 09:43:42;;;;;;;29.20;11.50;;;;;;;4.07;79.19;100635.86;106919;1278;22715;-78
2023/02/15 09:46:17;;;;;;;28.40;12.10;;;;;;;4.21;78.82;100635.89;107317;1275;22537;-76
2023/02/15 09:49:07;;;;;;;26.20;11.40;;;;;;;4.37;77.84;100629.76;109830;1275;22259;-78
2023/02/15 09:51:58;;;;;;;32.40;12.00;;;;;;;4.55;78.11;100628.82;109766;1282;22470;-78
2023/02/15 09:54:48;;;;;;;21.80;9.70;;;;;;;4.74;77.49;100622.20;109791;1274;22294;-78
2023/02/15 09:57:52;;;;;;;27.60;11.60;;;;;;;4.92;76.31;100616.77;109694;1282;22442;-76
2023/02/15 10:00:44;;;;;;;25.40;11.40;;;;;;;5.12;75.79;100614.64;109779;1275;22979;-75
2023/02/15 10:03:53;;;;;;;22.60;11.20;;;;;;;5.26;74.01;100606.67;109786;1282;22167;-76
2023/02/15 10:06:46;;;;;;;25.00;11.60;;;;;;;5.42;73.71;100602.53;108146;1275;22545;-77
2023/02/15 10:10:17;;;;;;;20.90;8.90;;;;;;;5.58;72.70;100601.30;107182;1276;22819;-77
2023/02/15 10:13:13;;;;;;;26.30;10.30;;;;;;;5.69;71.25;100593.08;107087;1275;22559;-77
2023/02/15 10:16:04;;;;;;;22.10;9.10;;;;;;;5.76;71.02;100592.17;107097;1275;22543;-78
2023/02/15 10:19:10;;;;;;;23.70;9.20;;;;;;;5.84;70.08;100590.41;107184;1275;22601;-77
2023/02/15 10:22:42;;;;;;;22.60;9.60;;;;;;;5.90;69.03;100587.24;107199;1280;24416;-77
2023/02/15 10:25:58;;;;;;;23.90;8.50;;;;;;;5.97;68.54;100585.19;107237;1282;23327;-77
2023/02/15 10:29:29;;;;;;;;;;;;;;;;;;;;;
2023/02/15 10:33:12;;;;;;;23.30;9.80;;;;;;;6.06;67.67;100579.83;107371;1272;22550;-77
2023/02/15 10:36:37;;;;;;;22.50;10.20;;;;;;;6.16;67.91;100582.74;107125;1282;24245;-78
2023/02/15 10:39:43;;;;;;;23.80;10.40;;;;;;;6.24;68.38;100577.55;107072;1282;26600;-78
2023/02/15 10:43:24;;;;;;;;;;;;;;;;;;;;;
2023/02/15 10:46:44;;;;;;;22.40;9.60;;;;;;;6.37;66.58;100572.08;107337;1275;22542;-78
2023/02/15 10:50:25;;;;;;;20.20;8.30;;;;;;;6.50;66.67;100565.02;107127;1279;25466;-77
2023/02/15 10:53:51;;;;;;;16.80;8.50;;;;;;;6.56;65.61;100563.59;107025;1276;22811;-76
2023/02/15 10:57:06;;;;;;;17.70;8.70;;;;;;;6.62;64.53;100555.90;106948;1282;22558;-77
2023/02/15 10:59:55;;;;;;;17.50;9.00;;;;;;;6.69;65.14;100553.41;106896;1275;25266;-78
2023/02/15 11:02:52;;;;;;;24.30;9.30;;;;;;;6.79;64.50;100550.98;107043;1275;25505;-77
2023/02/15 11:05:54;;;;;;;21.20;8.90;;;;;;;6.87;64.01;100556.06;107002;1276;24339;-77
2023/02/15 11:08:29;;;;;;;23.70;9.50;;;;;;;6.90;62.88;100543.55;106898;1275;22622;-77
2023/02/15 11:11:18;;;;;;;25.90;9.70;;;;;;;6.93;63.78;100537.38;107144;1278;25579;-77
2023/02/15 11:13:55;;;;;;;26.50;11.10;;;;;;;7.01;63.41;100534.02;107099;1277;22582;-77
2023/02/15 11:16:31;;;;;;;25.80;11.30;;;;;;;7.11;64.00;100534.15;106960;1278;22494;-76
2023/02/15 11:19:21;;;;;;;22.20;9.50;;;;;;;7.17;63.05;100533.52;107141;1273;23693;-75
2023/02/15 11:22:03;;;;;;;26.30;10.80;;;;;;;7.21;62.87;100525.64;107107;1275;22803;-77
2023/02/15 11:24:42;;;;;;;21.40;10.20;;;;;;;7.24;62.34;100525.33;109801;1274;22232;-78
2023/02/15 11:27:22;;;;;;;23.70;10.80;;;;;;;7.28;62.02;100522.09;107125;1280;22553;-78
2023/02/15 11:29:54;;;;;;;21.70;10.60;;;;;;;7.30;61.91;100524.70;109615;1275;22575;-78
2023/02/15 11:32:30;;;;;;;25.80;11.90;;;;;;;7.36;62.46;100514.77;107211;1264;25240;-77
2023/02/15 11:35:10;;;;;;;25.70;10.80;;;;;;;7.40;61.83;100516.88;107128;1275;27323;-79
2023/02/15 11:37:57;;;;;;;21.70;10.00;;;;;;;7.46;61.53;100511.58;107242;1274;25240;-78
2023/02/15 11:40:33;;;;;;;21.10;9.70;;;;;;;7.49;61.60;100510.25;107145;1280;22525;-77
2023/02/15 11:43:11;;;;;;;24.90;10.90;;;;;;;7.57;61.36;100501.86;107214;1272;22555;-79
2023/02/15 11:45:47;;;;;;;20.60;9.60;;;;;;;7.67;61.60;100501.79;107787;1275;22620;-78
2023/02/15 11:48:17;;;;;;;26.20;10.80;;;;;;;7.74;61.69;100494.08;107936;1278;23396;-78
2023/02/15 11:50:46;;;;;;;19.10;9.70;;;;;;;7.82;60.70;100499.50;107988;1275;24292;-79
2023/02/15 11:53:25;;;;;;;22.10;11.00;;;;;;;7.85;60.05;100497.29;107174;1278;26676;-78
2023/02/15 11:55:56;;;;;;;24.40;10.50;;;;;;;7.90;59.70;100497.50;107460;1275;25241;-79
2023/02/15 11:58:37;;;;;;;24.20;10.20;;;;;;;8.00;60.29;100492.91;107355;1278;22552;-81
2023/02/15 12:01:28;;;;;;;26.10;11.50;;;;;;;8.16;59.63;100494.59;107278;1278;22578;-79
2023/02/15 12:04:14;;;;;;;31.80;10.40;;;;;;;8.31;59.59;100491.77;107224;1275;23278;-79
2023/02/15 12:06:55;;;;;;;21.20;10.20;;;;;;;8.45;59.05;100484.97;107237;1275;22651;-78
2023/02/15 12:10:19;;;;;;;22.80;10.10;;;;;;;8.61;59.29;100484.70;109668;1274;22566;-82
2023/02/15 12:13:14;;;;;;;29.10;10.30;;;;;;;8.75;58.10;100479.94;108559;1278;26625;-80
2023/02/15 12:15:50;;;;;;;33.80;10.10;;;;;;;8.90;58.19;100486.40;107148;1280;22561;-79
2023/02/15 12:18:39;;;;;;;26.10;10.20;;;;;;;9.00;57.08;100484.88;106971;1262;22547;-79
2023/02/15 12:21:44;;;;;;;23.80;9.70;;;;;;;9.14;56.61;100487.17;107124;1275;22562;-79
2023/02/15 12:24:32;;;;;;;20.40;10.00;;;;;;;9.19;56.53;100481.14;106958;1281;24347;-79
2023/02/15 12:27:21;;;;;;;31.60;10.10;;;;;;;9.30;56.01;100482.55;107142;1274;24394;-78